• Join FlightAware (Why Join?)
  • Login
  • US Flag 
05:00PM EST


 

Airport Tracker/Info


-or-


 

Live Flight TrackerFlight Track Log ✈ SWA311 ✈ 12-Apr-2013 ✈ KAUS - KHOU

Flight Track Log - Related Links

Times and Time Zones

All times are in EDT time to prevent confusion due to time zone crossing. See the SWA311 flight status page for this flight to view local times or setup timezone preferences in your user account.

Time Position Orientation Groundspeed Altitude Reporting Facility
EDT Latitude Longitude Course Direction KTS MPH feet Rate Location/Type
05:33PM 30.1058 -97.5814 80° East 270 311 9,800  Level Houston Center
05:34PM 30.1714 -97.5144 41° Northeast 330 380 12,500 3,000 Climbing Houston Center
05:35PM 30.2317 -97.4158 55° Northeast 369 425 16,100 2,160 Climbing Houston Center
05:36PM 30.3514 -97.2097 99° East  Level FlightAware Approximate
05:36PM 30.2919 -97.3094 57° Northeast 389 448 17,000  Level Houston Center
05:37PM 30.3500 -97.1148 90° East  Level FlightAware Approximate
05:37PM 30.3703 -97.1950 52° Northeast 388 447 17,000  Level Houston Center
05:38PM 30.4372 -97.0969 52° Northeast 387 445 17,000 840 Level Houston Center
05:39PM 30.5069 -96.9953 51° Northeast 397 457 18,800 1,920 Climbing Houston Center
05:40PM 30.5642 -96.8772 61° Northeast 420 483 21,000 1,020 Climbing Houston Center
05:41PM 30.5319 -96.7458 106° East 448 516 21,000 -60 Level Houston Center
05:42PM 30.4561 -96.6300 127° Southeast 449 517 20,900 -1,440 Descending Houston Center
05:43PM 30.3769 -96.4906 123° Southeast 441 507 18,000 -2,760 Descending Houston Center
05:44PM 30.3097 -96.3789 125° Southeast 423 487 15,200 -2,880 Descending Houston Center
05:44PM 30.2892 -96.3486 128° Southeast 414 476 14,200 -2,640 Descending Houston Center
05:45PM 30.2433 -96.2706 124° Southeast 413 475 12,500 -2,640 Descending Houston Center
05:45PM 30.2156 -96.2239 125° Southeast 402 463 11,300 -1,500 Descending Houston Center
05:46PM 30.1664 -96.1872 147° Southeast 383 441 11,000 -360 Descending Houston Center
05:46PM 30.1289 -96.1661 154° Southeast 374 430 11,000  Level Houston Center
05:47PM 30.0756 -96.1372 155° Southeast 373 429 11,000  Level Houston Center
05:47PM 30.0364 -96.1161 155° Southeast 371 427 11,000  Level Houston Center
05:48PM 29.9808 -96.0861 155° Southeast 373 429 11,000  Level Houston Center
05:48PM 29.9375 -96.0647 157° South 373 429 11,000  Level Houston Center
05:49PM 29.8667 -96.0258 155° Southeast 375 432 11,000  Level Houston Center
05:49PM 29.8322 -96.0092 157° South 373 429 11,000  Level Houston Center
05:50PM 29.7769 -95.9789 155° Southeast 364 419 11,000  Level Houston Center
05:50PM 29.7539 -95.9533 136° Southeast 355 409 11,000  Level Houston Center
05:51PM 29.7150 -95.8900 125° Southeast 366 421 11,000 -240 Level Houston Center
05:51PM 29.6953 -95.8589 126° Southeast 363 418 10,800 -600 Descending Houston Center
05:52PM 29.6608 -95.8025 125° Southeast 341 392 10,400 -900 Descending Houston Center
05:52PM 29.6433 -95.7714 123° Southeast 304 350 9,900 -1,260 Descending Houston Center
05:53PM 29.6147 -95.7219 124° Southeast 307 353 9,100 -1,440 Descending Houston Center
05:54PM 29.5758 -95.6242 115° Southeast 284 327 7,300 -1,800 Descending Houston Center
05:55PM 29.5542 -95.5378 106° East 283 326 5,400 -1,680 Descending Houston Center
05:56PM 29.5478 -95.4536 95° East 272 313 3,900 -1,680 Descending Houston Center
05:57PM 29.5553 -95.3789 83° East 246 283 2,000 -1,260 Descending Houston Center
05:58PM 29.5931 -95.3358 45° Northeast 209 241 1,300 -780 Descending Houston Center
05:59PM 29.6222 -95.3039 44° Northeast 172 198 500 -600 Descending Houston Center
06:00PM 29.6539 -95.2711 42° Northeast 155 178 100 -420 Descending Houston Center
06:02PM 29.6454 -95.2789 180° South  Level Estimated